createdAt,value
2022-08-16T00:01:29.016Z,95.10
2022-08-16T00:04:05.383Z,95.00
2022-08-16T00:06:33.954Z,95.10
2022-08-16T00:09:05.308Z,95.00
2022-08-16T00:11:35.626Z,95.10
2022-08-16T00:14:08.599Z,95.10
2022-08-16T00:17:11.544Z,95.10
2022-08-16T00:19:41.585Z,95.00
2022-08-16T00:22:13.759Z,94.80
2022-08-16T00:24:51.485Z,94.90
2022-08-16T00:27:21.608Z,94.90
2022-08-16T00:30:08.303Z,94.80
2022-08-16T00:32:38.727Z,94.80
2022-08-16T00:35:09.909Z,94.70
2022-08-16T00:37:56.896Z,94.60
2022-08-16T00:40:34.755Z,94.50
2022-08-16T00:43:11.911Z,94.50
2022-08-16T00:45:58.043Z,94.90
2022-08-16T00:48:31.899Z,94.50
2022-08-16T00:51:16.013Z,94.60
2022-08-16T00:53:46.819Z,94.60
2022-08-16T00:56:55.928Z,94.70
2022-08-16T00:59:12.194Z,94.80
2022-08-16T01:01:44.787Z,94.70
2022-08-16T01:04:29.513Z,94.70
2022-08-16T01:07:02.323Z,94.80
2022-08-16T01:09:33.578Z,94.70
2022-08-16T01:12:08.562Z,94.60
2022-08-16T01:14:49.196Z,94.50
2022-08-16T01:17:20.035Z,94.50
2022-08-16T01:19:57.344Z,94.50
2022-08-16T01:22:57.754Z,94.60
2022-08-16T01:25:34.018Z,94.60
2022-08-16T01:28:07.492Z,94.60
2022-08-16T01:30:49.471Z,94.70
2022-08-16T01:33:20.628Z,94.70
2022-08-16T01:35:56.132Z,94.70
2022-08-16T01:38:28.458Z,94.70
2022-08-16T01:41:02.403Z,94.70
2022-08-16T01:43:32.408Z,94.80
2022-08-16T01:46:37.196Z,94.80
2022-08-16T01:48:56.450Z,94.90
2022-08-16T01:51:26.856Z,94.90
2022-08-16T01:53:55.956Z,94.90
2022-08-16T01:56:27.334Z,94.90
2022-08-16T01:58:57.474Z,94.90
2022-08-16T02:01:28.262Z,95.00
2022-08-16T02:03:58.716Z,95.10
2022-08-16T02:06:46.098Z,95.10
2022-08-16T02:09:17.682Z,95.00
2022-08-16T02:11:56.314Z,95.00
2022-08-16T02:14:27.368Z,95.00
2022-08-16T02:16:56.774Z,95.00
2022-08-16T02:19:58.840Z,95.00
2022-08-16T02:22:34.324Z,95.10
2022-08-16T02:25:10.100Z,95.10
2022-08-16T02:27:41.292Z,95.00
2022-08-16T02:30:36.539Z,95.00
2022-08-16T02:33:04.345Z,95.10
2022-08-16T02:35:34.791Z,95.00
2022-08-16T02:38:23.081Z,95.00
2022-08-16T02:40:54.565Z,95.00
2022-08-16T02:43:26.442Z,95.00
2022-08-16T02:45:54.946Z,95.10
2022-08-16T02:48:29.849Z,95.00
2022-08-16T02:51:06.601Z,95.10
2022-08-16T02:53:41.092Z,95.10
2022-08-16T02:56:14.648Z,95.10
2022-08-16T02:58:45.591Z,95.10
2022-08-16T03:01:25.324Z,95.10
2022-08-16T03:04:39.521Z,95.00
2022-08-16T03:06:56.722Z,95.00
2022-08-16T03:09:28.814Z,95.00
2022-08-16T03:12:02.461Z,95.10
2022-08-16T03:14:33.121Z,95.00
2022-08-16T03:17:02.277Z,95.00
2022-08-16T03:19:46.914Z,95.00
2022-08-16T03:22:18.906Z,95.00
2022-08-16T03:24:57.297Z,95.30
2022-08-16T03:27:30.788Z,94.90
2022-08-16T03:30:15.251Z,94.90
2022-08-16T03:32:47.114Z,94.90
2022-08-16T03:35:17.967Z,95.00
2022-08-16T03:38:01.697Z,95.10
2022-08-16T03:40:33.828Z,95.10
2022-08-16T03:43:19.807Z,95.00
2022-08-16T03:45:53.408Z,95.10
2022-08-16T03:48:36.969Z,95.00
2022-08-16T03:51:12.396Z,95.10
2022-08-16T03:53:42.500Z,95.10
2022-08-16T03:56:19.974Z,95.10
2022-08-16T03:58:52.683Z,95.10
2022-08-16T04:01:23.460Z,95.10
2022-08-16T04:03:55.204Z,95.00
2022-08-16T04:06:23.723Z,95.00
2022-08-16T04:08:52.147Z,95.00
2022-08-16T04:11:23.730Z,95.00
2022-08-16T04:14:00.960Z,95.00
2022-08-16T04:16:42.863Z,95.00
2022-08-16T04:19:11.596Z,94.90
2022-08-16T04:21:46.004Z,95.00
2022-08-16T04:24:16.292Z,95.00
2022-08-16T04:26:46.401Z,94.90
2022-08-16T04:29:23.251Z,94.90
2022-08-16T04:31:56.785Z,95.00
2022-08-16T04:34:28.889Z,95.00
2022-08-16T04:36:58.137Z,95.10
2022-08-16T04:39:45.629Z,95.10
2022-08-16T04:42:17.887Z,95.10
2022-08-16T04:44:53.434Z,95.10
2022-08-16T04:47:31.432Z,95.20
2022-08-16T04:50:00.785Z,95.30
2022-08-16T04:52:33.329Z,95.40
2022-08-16T04:55:08.017Z,95.40
2022-08-16T04:57:37.145Z,95.50
2022-08-16T05:00:32.181Z,95.50
2022-08-16T05:03:07.382Z,95.60
2022-08-16T05:05:55.421Z,95.70
2022-08-16T05:08:28.109Z,95.70
2022-08-16T05:11:01.268Z,95.70
2022-08-16T05:13:40.538Z,95.70
2022-08-16T05:16:11.987Z,95.70
2022-08-16T05:18:51.625Z,95.70
2022-08-16T05:21:21.614Z,95.70
2022-08-16T05:23:56.032Z,95.70
2022-08-16T05:26:29.483Z,95.70
2022-08-16T05:28:58.823Z,95.90
2022-08-16T05:31:29.717Z,96.00
2022-08-16T05:34:03.236Z,96.10
2022-08-16T05:36:34.435Z,96.30
2022-08-16T05:39:07.693Z,96.30
2022-08-16T05:41:45.510Z,96.30
2022-08-16T05:44:24.213Z,96.30
2022-08-16T05:46:54.977Z,96.50
2022-08-16T05:49:36.938Z,96.70
2022-08-16T05:52:11.495Z,96.80
2022-08-16T05:54:46.554Z,96.80
2022-08-16T05:57:15.739Z,96.80
2022-08-16T05:59:44.176Z,97.00
2022-08-16T06:02:12.599Z,97.10
2022-08-16T06:04:45.191Z,97.30
2022-08-16T06:07:24.530Z,97.20
2022-08-16T06:09:56.343Z,97.30
2022-08-16T06:12:27.040Z,97.50
2022-08-16T06:14:59.353Z,97.60
2022-08-16T06:17:41.227Z,97.70
2022-08-16T06:20:18.549Z,97.80
2022-08-16T06:22:58.998Z,97.90
2022-08-16T06:25:35.797Z,98.00
2022-08-16T06:28:08.740Z,97.90
2022-08-16T06:30:43.774Z,98.10
2022-08-16T06:33:22.052Z,98.20
2022-08-16T06:35:55.300Z,98.20
2022-08-16T06:38:33.373Z,98.20
2022-08-16T06:41:05.582Z,98.30
2022-08-16T06:43:35.706Z,98.60
2022-08-16T06:46:06.675Z,98.80
2022-08-16T06:48:43.144Z,98.90
2022-08-16T06:51:14.867Z,98.80
2022-08-16T06:53:43.543Z,98.90
2022-08-16T06:56:14.867Z,99.10
2022-08-16T06:58:51.980Z,99.20
2022-08-16T07:01:42.821Z,99.30
2022-08-16T07:04:10.497Z,99.30
2022-08-16T07:06:43.319Z,99.20
2022-08-16T07:09:12.361Z,99.20
2022-08-16T07:11:45.938Z,99.20
2022-08-16T07:14:25.529Z,98.80
2022-08-16T07:16:58.979Z,99.00
2022-08-16T07:20:01.712Z,98.90
2022-08-16T07:22:38.138Z,99.30
2022-08-16T07:25:10.127Z,99.10
2022-08-16T07:27:40.739Z,99.30
2022-08-16T07:30:39.579Z,99.20
2022-08-16T07:33:00.870Z,99.20
2022-08-16T07:35:29.793Z,99.30
2022-08-16T07:37:59.726Z,99.40
2022-08-16T07:40:56.435Z,99.60
2022-08-16T07:43:16.793Z,99.80
2022-08-16T07:45:51.131Z,99.70
2022-08-16T07:48:24.118Z,99.80
2022-08-16T07:50:56.451Z,99.80
2022-08-16T07:53:30.215Z,99.90
2022-08-16T07:56:00.624Z,99.90
2022-08-16T07:58:33.727Z,99.90
2022-08-16T08:01:10.347Z,99.90
2022-08-16T08:03:42.511Z,99.90
2022-08-16T08:06:13.580Z,99.90
2022-08-16T08:08:50.583Z,99.90
2022-08-16T08:11:21.455Z,99.90
2022-08-16T08:13:50.890Z,99.90
2022-08-16T08:16:20.012Z,99.90
2022-08-16T08:18:56.202Z,99.90
2022-08-16T08:21:58.263Z,99.90
2022-08-16T08:24:19.740Z,99.90
2022-08-16T08:26:50.093Z,99.90
2022-08-16T08:29:22.520Z,99.90
2022-08-16T08:31:52.117Z,99.90
2022-08-16T08:34:23.127Z,99.90
2022-08-16T08:36:54.079Z,99.90
2022-08-16T08:39:24.672Z,99.90
2022-08-16T08:41:53.569Z,99.80
2022-08-16T08:44:29.228Z,99.70
2022-08-16T08:47:01.554Z,99.60
2022-08-16T08:49:47.059Z,99.60
2022-08-16T08:52:33.587Z,99.60
2022-08-16T08:55:10.509Z,99.70
2022-08-16T08:57:41.088Z,99.60
2022-08-16T09:00:13.131Z,99.50
2022-08-16T09:02:43.004Z,99.50
2022-08-16T09:05:14.796Z,99.20
2022-08-16T09:08:00.837Z,98.80
2022-08-16T09:10:32.576Z,98.80
2022-08-16T09:13:02.517Z,99.10
2022-08-16T09:15:32.681Z,99.00
2022-08-16T09:18:24.883Z,98.40
2022-08-16T09:20:59.006Z,98.30
2022-08-16T09:23:36.212Z,98.30
2022-08-16T09:26:44.129Z,98.00
2022-08-16T09:29:15.159Z,98.00
2022-08-16T09:31:45.746Z,98.00
2022-08-16T09:34:19.443Z,97.80
2022-08-16T09:36:47.972Z,97.20
2022-08-16T09:39:18.128Z,97.10
2022-08-16T09:41:53.736Z,96.90
2022-08-16T09:45:09.149Z,96.70
2022-08-16T09:47:12.315Z,95.90
2022-08-16T09:49:41.292Z,95.80
2022-08-16T09:52:11.361Z,95.60
2022-08-16T09:54:44.535Z,95.60
2022-08-16T09:57:15.220Z,95.40
2022-08-16T09:59:43.858Z,95.30
2022-08-16T10:02:27.075Z,95.10
2022-08-16T10:04:57.546Z,94.80
2022-08-16T10:07:26.498Z,94.70
2022-08-16T10:10:13.370Z,94.60
2022-08-16T10:13:06.646Z,94.60
2022-08-16T10:15:37.283Z,94.60
2022-08-16T10:18:56.714Z,94.00
2022-08-16T10:20:59.539Z,93.90
2022-08-16T10:23:29.815Z,94.00
2022-08-16T10:27:18.137Z,93.40
2022-08-16T10:28:48.057Z,92.90
2022-08-16T10:31:45.719Z,93.10
2022-08-16T10:34:30.981Z,93.30
2022-08-16T10:36:56.923Z,93.10
2022-08-16T10:39:25.916Z,93.10
2022-08-16T10:41:54.572Z,93.30
2022-08-16T10:44:24.376Z,93.60
2022-08-16T10:46:53.649Z,93.60
2022-08-16T10:49:24.192Z,94.00
2022-08-16T10:52:01.992Z,93.90
2022-08-16T10:54:32.149Z,93.90
2022-08-16T10:57:01.053Z,93.90
2022-08-16T10:59:46.906Z,94.30
2022-08-16T11:02:59.167Z,94.10
2022-08-16T11:05:16.399Z,94.20
2022-08-16T11:07:53.363Z,94.30
2022-08-16T11:19:05.480Z,94.60
2022-08-16T11:21:37.664Z,94.80
2022-08-16T11:24:39.649Z,94.60
2022-08-16T11:27:20.095Z,94.70
2022-08-16T11:29:52.079Z,95.00
2022-08-16T11:32:32.443Z,95.00
2022-08-16T11:35:10.322Z,95.10
2022-08-16T11:40:33.121Z,94.90
2022-08-16T11:43:09.905Z,95.00
2022-08-16T11:45:42.474Z,95.30
2022-08-16T11:48:14.129Z,95.40
2022-08-16T11:50:43.094Z,95.80
2022-08-16T11:53:13.006Z,95.90
2022-08-16T11:55:45.736Z,95.20
2022-08-16T11:58:20.100Z,95.10
2022-08-16T12:00:51.909Z,94.90
2022-08-16T12:03:34.676Z,94.90
2022-08-16T12:06:25.565Z,94.50
2022-08-16T12:09:02.165Z,94.80
2022-08-16T12:11:31.732Z,95.30
2022-08-16T12:14:00.946Z,95.20
2022-08-16T12:16:31.236Z,95.20
2022-08-16T12:19:04.776Z,95.20
2022-08-16T12:21:36.226Z,95.20
2022-08-16T12:24:22.265Z,95.30
2022-08-16T12:26:52.867Z,95.40
2022-08-16T12:29:22.349Z,95.50
2022-08-16T12:32:00.711Z,95.80
2022-08-16T12:34:50.480Z,95.90
2022-08-16T12:37:24.381Z,95.50
2022-08-16T12:39:55.146Z,95.50
2022-08-16T12:42:25.169Z,95.40
2022-08-16T12:45:03.120Z,95.40
2022-08-16T12:47:49.021Z,96.00
2022-08-16T12:50:18.941Z,94.50
2022-08-16T12:52:52.416Z,94.60
2022-08-16T12:55:25.673Z,94.60
2022-08-16T12:58:48.386Z,94.20
2022-08-16T13:01:08.473Z,93.70
2022-08-16T13:03:45.200Z,93.90
2022-08-16T13:06:33.695Z,94.00
2022-08-16T13:09:26.195Z,93.70
2022-08-16T13:12:09.668Z,93.50
2022-08-16T13:14:49.825Z,93.30
2022-08-16T13:17:29.532Z,93.10
2022-08-16T13:20:08.937Z,93.00
2022-08-16T13:22:47.272Z,93.10
2022-08-16T13:25:25.483Z,93.20
2022-08-16T13:28:18.627Z,93.00
2022-08-16T13:30:49.396Z,92.40
2022-08-16T13:33:24.784Z,92.40
2022-08-16T13:35:58.111Z,92.40
2022-08-16T13:38:31.342Z,92.00
2022-08-16T13:41:02.618Z,91.70
2022-08-16T13:43:32.774Z,91.70
2022-08-16T13:46:04.816Z,91.80
2022-08-16T13:48:42.742Z,91.30
2022-08-16T13:51:16.733Z,91.00
2022-08-16T13:53:54.416Z,90.90
2022-08-16T13:56:37.591Z,90.00
2022-08-16T13:59:19.377Z,89.80
2022-08-16T14:01:55.257Z,89.40
2022-08-16T14:04:27.096Z,89.70
2022-08-16T14:06:57.161Z,89.90
2022-08-16T14:09:28.494Z,88.90
2022-08-16T14:11:57.495Z,89.10
2022-08-16T14:14:28.407Z,88.80
2022-08-16T14:16:58.032Z,89.20
2022-08-16T14:19:27.811Z,89.50
2022-08-16T14:22:14.931Z,90.10
2022-08-16T14:24:46.947Z,89.80
2022-08-16T14:27:17.027Z,90.00
2022-08-16T14:29:49.026Z,90.30
2022-08-16T14:32:33.034Z,90.30
2022-08-16T14:35:04.853Z,90.20
2022-08-16T14:37:35.896Z,89.80
2022-08-16T14:40:07.764Z,89.90
2022-08-16T14:42:36.925Z,89.60
2022-08-16T14:45:06.732Z,90.10
2022-08-16T14:47:37.322Z,90.10
2022-08-16T14:50:07.973Z,90.20
2022-08-16T14:52:54.790Z,89.70
2022-08-16T14:55:27.445Z,89.30
2022-08-16T14:57:56.103Z,88.90
2022-08-16T15:00:32.747Z,89.40
2022-08-16T15:03:04.518Z,89.50
2022-08-16T15:05:33.469Z,89.00
2022-08-16T15:08:04.119Z,88.20
2022-08-16T15:10:34.381Z,88.10
2022-08-16T15:13:09.685Z,88.20
2022-08-16T15:15:39.546Z,88.20
2022-08-16T15:18:11.841Z,88.80
2022-08-16T15:20:42.013Z,89.20
2022-08-16T15:23:11.856Z,89.10
2022-08-16T15:25:47.220Z,90.00
2022-08-16T15:28:31.532Z,90.30
2022-08-16T15:31:03.867Z,90.60
2022-08-16T15:33:34.116Z,91.30
2022-08-16T15:36:03.940Z,91.30
2022-08-16T15:39:02.609Z,90.90
2022-08-16T15:41:53.944Z,90.60
2022-08-16T15:44:25.172Z,90.10
2022-08-16T15:46:59.811Z,90.00
2022-08-16T15:49:37.934Z,90.00
2022-08-16T15:52:18.542Z,89.70
2022-08-16T15:54:52.763Z,88.40
2022-08-16T15:57:24.585Z,88.30
2022-08-16T15:59:55.908Z,86.00
2022-08-16T16:02:31.464Z,84.10
2022-08-16T16:05:02.458Z,83.70
2022-08-16T16:07:33.893Z,84.10
2022-08-16T16:10:03.482Z,84.20
2022-08-16T16:12:53.671Z,83.50
2022-08-16T16:15:24.427Z,83.20
2022-08-16T16:17:53.949Z,81.60
2022-08-16T16:20:27.543Z,80.40
2022-08-16T16:22:58.988Z,78.20
2022-08-16T16:25:29.835Z,78.10
2022-08-16T16:28:00.673Z,78.30
2022-08-16T16:30:37.345Z,77.60
2022-08-16T16:33:20.454Z,77.80
2022-08-16T16:35:55.242Z,78.00
2022-08-16T16:38:29.061Z,76.80
2022-08-16T16:40:57.846Z,77.00
2022-08-16T16:43:31.633Z,77.10
2022-08-16T16:46:02.576Z,76.10
2022-08-16T16:48:35.523Z,76.30
2022-08-16T16:51:09.418Z,76.90
2022-08-16T16:53:42.202Z,77.30
2022-08-16T16:56:20.372Z,77.70
2022-08-16T16:58:58.037Z,78.00
2022-08-16T17:01:59.737Z,78.40
2022-08-16T17:04:32.423Z,78.70
2022-08-16T17:07:02.478Z,79.80
2022-08-16T17:09:31.539Z,80.90
2022-08-16T17:12:00.144Z,81.70
2022-08-16T17:14:32.689Z,81.50
2022-08-16T17:17:06.882Z,82.00
2022-08-16T17:19:40.926Z,82.20
2022-08-16T17:22:13.917Z,82.30
2022-08-16T17:24:45.394Z,82.30
2022-08-16T17:27:32.396Z,82.90
2022-08-16T17:30:15.138Z,83.70
2022-08-16T17:32:50.172Z,84.00
2022-08-16T17:35:22.945Z,85.00
2022-08-16T17:38:06.482Z,85.60
2022-08-16T17:43:49.365Z,86.90
2022-08-16T17:46:50.493Z,88.00
2022-08-16T17:49:08.906Z,88.00
2022-08-16T17:51:37.295Z,88.10
2022-08-16T17:54:07.196Z,88.80
2022-08-16T17:56:46.908Z,89.10
2022-08-16T17:59:15.666Z,89.50
2022-08-16T18:01:46.415Z,89.70
2022-08-16T18:04:15.082Z,90.00
2022-08-16T18:07:05.309Z,90.10
2022-08-16T18:09:33.718Z,90.40
2022-08-16T18:12:45.055Z,90.40
2022-08-16T18:15:03.256Z,90.50
2022-08-16T18:17:33.173Z,90.60
2022-08-16T18:20:01.730Z,90.70
2022-08-16T18:22:31.776Z,90.80
2022-08-16T18:25:00.174Z,90.80
2022-08-16T18:27:32.583Z,90.90
2022-08-16T18:30:01.340Z,90.90
2022-08-16T18:32:29.670Z,91.00
2022-08-16T18:34:59.486Z,91.20
2022-08-16T18:37:27.821Z,91.30
2022-08-16T18:39:58.199Z,91.40
2022-08-16T18:42:26.745Z,91.40
2022-08-16T18:44:55.107Z,91.60
2022-08-16T18:47:23.556Z,91.70
2022-08-16T18:49:51.911Z,91.70
2022-08-16T18:52:24.922Z,91.70
2022-08-16T18:55:03.119Z,91.70
2022-08-16T18:57:42.817Z,91.80
2022-08-16T19:00:13.312Z,92.00
2022-08-16T19:02:58.661Z,92.00
2022-08-16T19:05:30.890Z,92.10
2022-08-16T19:08:01.704Z,92.20
2022-08-16T19:10:30.620Z,92.30
2022-08-16T19:12:59.827Z,92.30
2022-08-16T19:15:29.860Z,92.40
2022-08-16T19:17:58.255Z,92.30
2022-08-16T19:20:28.652Z,92.30
2022-08-16T19:23:10.489Z,92.50
2022-08-16T19:25:47.245Z,92.60
2022-08-16T19:28:51.223Z,92.50
2022-08-16T19:31:12.352Z,92.50
2022-08-16T19:33:41.239Z,92.60
2022-08-16T19:36:31.055Z,92.60
2022-08-16T19:39:04.934Z,92.50
2022-08-16T19:41:36.870Z,92.30
2022-08-16T19:44:06.435Z,92.10
2022-08-16T19:46:35.122Z,92.00
2022-08-16T19:49:03.680Z,91.80
2022-08-16T19:51:32.157Z,91.60
2022-08-16T19:54:00.685Z,91.50
2022-08-16T19:56:29.101Z,91.30
2022-08-16T20:01:49.364Z,91.30
2022-08-16T20:04:17.858Z,91.20
2022-08-16T20:06:46.966Z,91.20
2022-08-16T20:09:15.967Z,91.10
2022-08-16T20:11:45.546Z,91.10
2022-08-16T20:14:24.418Z,91.00
2022-08-16T20:16:55.443Z,90.90
2022-08-16T20:19:24.302Z,90.90
2022-08-16T20:21:52.677Z,90.80
2022-08-16T20:24:36.806Z,90.80
2022-08-16T20:27:07.593Z,90.80
2022-08-16T20:29:39.172Z,90.90
2022-08-16T20:32:09.128Z,91.10
2022-08-16T20:34:37.619Z,91.00
2022-08-16T20:37:06.556Z,91.00
2022-08-16T20:39:35.280Z,90.90
2022-08-16T20:42:03.752Z,91.10
2022-08-16T20:44:32.143Z,91.10
2022-08-16T20:47:02.152Z,91.10
2022-08-16T20:49:30.640Z,91.10
2022-08-16T20:51:59.843Z,91.20
2022-08-16T20:54:29.414Z,91.30
2022-08-16T20:56:57.812Z,91.40
2022-08-16T20:59:26.251Z,91.60
2022-08-16T21:01:55.236Z,91.60
2022-08-16T21:04:27.778Z,91.50
2022-08-16T21:06:58.821Z,91.60
2022-08-16T21:09:31.554Z,91.60
2022-08-16T21:12:02.072Z,91.50
2022-08-16T21:14:32.605Z,91.30
2022-08-16T21:17:01.460Z,91.20
2022-08-16T21:19:31.653Z,91.00
2022-08-16T21:22:10.867Z,91.00
2022-08-16T21:24:39.395Z,91.10
2022-08-16T21:27:07.940Z,91.10
2022-08-16T21:29:43.148Z,91.10
2022-08-16T21:32:15.543Z,91.00
2022-08-16T21:34:46.925Z,91.10
2022-08-16T21:37:15.729Z,91.00
2022-08-16T21:39:44.700Z,90.60
2022-08-16T21:42:15.736Z,90.60
2022-08-16T21:44:45.546Z,90.80
2022-08-16T21:47:14.017Z,90.90
2022-08-16T21:49:42.617Z,91.00
2022-08-16T21:52:21.155Z,91.00
2022-08-16T21:54:56.801Z,91.00
2022-08-16T21:57:25.849Z,90.90
2022-08-16T21:59:55.826Z,90.90
2022-08-16T22:02:35.715Z,90.90
2022-08-16T22:05:08.225Z,90.80
2022-08-16T22:07:38.128Z,90.80
2022-08-16T22:11:05.167Z,91.00
2022-08-16T22:12:56.547Z,91.10
2022-08-16T22:15:25.896Z,91.20
2022-08-16T22:17:55.309Z,91.40
2022-08-16T22:20:25.027Z,91.50
2022-08-16T22:23:06.521Z,91.50
2022-08-16T22:25:35.299Z,91.40
2022-08-16T22:28:03.990Z,91.30
2022-08-16T22:30:32.819Z,91.20
2022-08-16T22:33:01.832Z,91.10
2022-08-16T22:35:30.219Z,91.10
2022-08-16T22:38:45.425Z,90.90
2022-08-16T22:40:49.239Z,90.70
2022-08-16T22:43:18.688Z,90.90
2022-08-16T22:45:47.539Z,91.00
2022-08-16T22:48:16.606Z,91.10
2022-08-16T22:50:45.185Z,91.50
2022-08-16T22:53:16.356Z,91.60
2022-08-16T22:55:44.738Z,91.50
2022-08-16T22:58:13.906Z,91.60
2022-08-16T23:00:44.221Z,91.50
2022-08-16T23:03:16.471Z,91.40
2022-08-16T23:05:47.442Z,91.40
2022-08-16T23:08:32.294Z,91.50
2022-08-16T23:11:09.231Z,91.50
2022-08-16T23:13:37.749Z,91.70
2022-08-16T23:16:21.624Z,91.80
2022-08-16T23:18:50.640Z,91.80
2022-08-16T23:21:19.136Z,91.70
2022-08-16T23:23:49.079Z,91.70
2022-08-16T23:26:36.555Z,91.70
2022-08-16T23:29:15.894Z,91.80
2022-08-16T23:31:50.792Z,91.90
2022-08-16T23:34:22.054Z,91.90
2022-08-16T23:36:50.515Z,91.90
2022-08-16T23:39:20.411Z,92.00
2022-08-16T23:41:48.950Z,92.10
2022-08-16T23:44:58.533Z,92.20
2022-08-16T23:47:07.188Z,92.20
2022-08-16T23:49:58.644Z,92.30
2022-08-16T23:52:54.025Z,92.40
2022-08-16T23:55:14.042Z,92.60
2022-08-16T23:57:44.862Z,92.70
